Time;durP1;ratioP1;P1;durP2;ratioP2;P2;SDS_P1;SDS_P2;PMS_P1;PMS_P2;Temp;Humidity;BMP_temperature;BMP_pressure;BME280_temperature;BME280_humidity;BME280_pressure;Samples;Min_cycle;Max_cycle;Signal;HPM_P1;HPM_P2
2022/09/05 00:01:13;;;;;;;10.38;7.60;;;;;;;15.91;71.08;101316.97;4926992;29;20508;-74
2022/09/05 00:03:52;;;;;;;8.45;7.75;;;;;;;15.89;71.52;101310.78;4925662;29;20407;-73
2022/09/05 00:06:20;;;;;;;8.10;7.30;;;;;;;15.87;71.20;101309.94;4926892;29;20134;-73
2022/09/05 00:08:56;;;;;;;8.18;7.38;;;;;;;15.84;71.66;101309.97;4928181;29;20590;-73
2022/09/05 00:11:31;;;;;;;7.75;7.10;;;;;;;15.86;71.74;101313.50;4926357;29;20040;-73
2022/09/05 00:14:12;;;;;;;8.80;8.10;;;;;;;15.85;71.61;101303.75;4927093;29;20072;-73
2022/09/05 00:16:51;;;;;;;8.20;7.40;;;;;;;15.81;72.28;101302.91;4928680;29;20044;-73
2022/09/05 00:19:35;;;;;;;8.63;7.93;;;;;;;15.77;72.21;101304.75;4928538;29;20491;-73
2022/09/05 00:22:27;;;;;;;8.55;7.63;;;;;;;15.76;72.15;101308.31;4931232;29;20040;-73
2022/09/05 00:25:18;;;;;;;7.85;7.13;;;;;;;15.73;72.71;101313.69;4925273;29;20040;-73
2022/09/05 00:28:09;;;;;;;8.15;7.53;;;;;;;15.72;72.53;101311.94;4925011;29;20135;-73
2022/09/05 00:31:03;;;;;;;7.97;7.35;;;;;;;15.70;72.54;101305.75;4929769;29;20039;-73
2022/09/05 00:33:40;;;;;;;8.20;7.50;;;;;;;15.71;72.45;101312.81;4924471;29;20083;-73
2022/09/05 00:36:23;;;;;;;8.32;7.63;;;;;;;15.71;73.05;101307.50;4928127;29;20403;-73
2022/09/05 00:39:06;;;;;;;8.80;7.80;;;;;;;15.70;72.88;101308.41;4930992;29;20071;-73
2022/09/05 00:41:32;;;;;;;7.72;7.03;;;;;;;15.68;72.47;101310.19;4940984;29;20418;-74
2022/09/05 00:43:59;;;;;;;9.27;7.88;;;;;;;15.69;72.97;101314.66;4925928;29;20043;-73
2022/09/05 00:46:36;;;;;;;8.57;7.28;;;;;;;15.71;73.24;101306.63;4927754;29;20048;-73
2022/09/05 00:49:33;;;;;;;7.80;7.10;;;;;;;15.76;73.43;101308.31;4926131;29;20111;-73
2022/09/05 00:52:05;;;;;;;8.07;7.32;;;;;;;15.82;73.06;101314.44;4930162;29;20047;-73
2022/09/05 00:55:12;;;;;;;8.75;7.95;;;;;;;15.93;73.87;101309.84;4924798;29;20043;-73
2022/09/05 00:57:52;;;;;;;8.02;7.32;;;;;;;16.03;73.36;101308.78;4908931;29;20140;-73
2022/09/05 01:00:50;;;;;;;8.60;7.90;;;;;;;16.18;73.30;101312.97;4925630;29;20036;-74
2022/09/05 01:03:47;;;;;;;8.98;8.18;;;;;;;16.33;73.40;101311.84;4924403;29;20047;-73
2022/09/05 01:06:16;;;;;;;11.00;7.80;;;;;;;16.44;72.28;101308.06;4927742;29;20182;-73
2022/09/05 01:09:15;;;;;;;7.70;7.00;;;;;;;16.53;72.37;101314.13;4925025;29;20036;-73
2022/09/05 01:12:02;;;;;;;8.18;7.43;;;;;;;16.61;72.42;101318.44;4926032;29;20091;-74
2022/09/05 01:14:45;;;;;;;7.72;7.03;;;;;;;16.65;71.96;101319.25;4925786;29;20040;-73
2022/09/05 01:17:37;;;;;;;7.90;7.20;;;;;;;16.69;72.54;101314.72;4925196;29;20103;-73
2022/09/05 01:20:15;;;;;;;8.07;7.38;;;;;;;16.69;72.06;101314.72;4931144;29;20036;-73
2022/09/05 01:23:06;;;;;;;8.55;7.82;;;;;;;16.67;72.08;101311.22;4924008;29;20123;-73
2022/09/05 01:26:00;;;;;;;8.20;7.40;;;;;;;16.64;72.84;101313.03;4924212;29;20127;-74
2022/09/05 01:28:53;;;;;;;7.70;7.10;;;;;;;16.59;72.71;101314.03;4927861;29;20043;-73
2022/09/05 01:31:34;;;;;;;8.25;7.45;;;;;;;16.52;72.51;101309.72;4924720;29;20047;-74
2022/09/05 01:34:28;;;;;;;8.20;7.50;;;;;;;16.49;72.59;101323.97;4924086;29;20360;-73
2022/09/05 01:37:06;;;;;;;8.20;7.10;;;;;;;16.45;72.77;101319.59;4924707;29;20577;-74
2022/09/05 01:39:51;;;;;;;10.35;7.90;;;;;;;16.41;73.09;101320.56;4924399;29;20497;-74
2022/09/05 01:42:54;;;;;;;7.60;6.97;;;;;;;16.36;73.41;101323.31;4925472;29;20380;-74
2022/09/05 01:45:32;;;;;;;7.97;7.18;;;;;;;16.35;72.96;101329.56;4926756;29;20039;-74
2022/09/05 01:48:08;;;;;;;8.57;7.75;;;;;;;16.32;73.36;101320.72;4926401;29;20035;-73
2022/09/05 01:50:43;;;;;;;8.15;7.45;;;;;;;16.31;73.12;101326.97;4926109;29;20048;-73
2022/09/05 01:53:46;;;;;;;8.27;7.57;;;;;;;16.31;73.30;101326.97;4924212;29;20040;-73
2022/09/05 01:56:34;;;;;;;8.52;7.82;;;;;;;16.30;73.54;101327.88;4923039;29;20039;-73
2022/09/05 01:58:59;;;;;;;7.88;7.18;;;;;;;16.27;72.98;101327.91;4924023;29;20399;-73
2022/09/05 02:01:46;;;;;;;9.00;7.35;;;;;;;16.24;72.92;101331.50;4925588;29;20031;-73
2022/09/05 02:04:39;;;;;;;9.27;8.38;;;;;;;16.17;73.67;101328.09;4924077;29;20075;-73
2022/09/05 02:07:22;;;;;;;8.57;7.75;;;;;;;16.10;73.88;101321.09;4924581;29;20463;-73
2022/09/05 02:10:00;;;;;;;8.18;7.40;;;;;;;16.02;73.87;101328.31;4923558;29;20034;-73
2022/09/05 02:12:40;;;;;;;9.57;7.38;;;;;;;15.95;74.68;101321.34;4923700;29;20063;-74
2022/09/05 02:15:15;;;;;;;8.05;7.18;;;;;;;15.89;74.66;101321.44;4924649;29;20040;-73
2022/09/05 02:17:40;;;;;;;8.10;7.30;;;;;;;15.84;74.55;101321.50;4923416;29;20039;-73
2022/09/05 02:20:11;;;;;;;8.85;8.05;;;;;;;15.80;75.07;101321.56;4926241;29;20418;-73
2022/09/05 02:22:43;;;;;;;8.73;7.93;;;;;;;15.74;75.44;101334.06;4926441;29;20047;-73
2022/09/05 02:25:17;;;;;;;8.13;7.15;;;;;;;15.68;75.89;101327.94;4923799;29;20046;-74
2022/09/05 02:27:53;;;;;;;7.75;7.03;;;;;;;15.64;76.15;101328.88;4923701;29;20451;-73
2022/09/05 02:30:22;;;;;;;8.25;7.32;;;;;;;15.63;76.14;101330.66;4923886;29;20036;-73
2022/09/05 02:33:12;;;;;;;9.13;8.23;;;;;;;15.61;77.31;101327.13;4931908;29;20082;-74
2022/09/05 02:35:58;;;;;;;7.25;6.65;;;;;;;15.58;76.89;101332.50;4929213;29;20094;-73
2022/09/05 02:38:36;;;;;;;7.90;7.20;;;;;;;15.54;76.41;101333.47;4926167;29;20087;-73
2022/09/05 02:41:18;;;;;;;7.65;6.93;;;;;;;15.51;77.03;101325.50;4927224;29;20040;-73
2022/09/05 02:43:58;;;;;;;9.20;8.30;;;;;;;15.49;77.31;101329.97;4930656;29;20040;-73
2022/09/05 02:46:40;;;;;;;8.48;7.68;;;;;;;15.48;77.92;101326.44;4922948;29;20044;-73
2022/09/05 02:49:09;;;;;;;;;;;;;;;15.42;79.70;101328.28;4924157;29;20039;-73
2022/09/05 02:51:42;;;;;;;11.88;10.68;;;;;;;15.41;78.30;101327.41;4925931;29;19915;-73
2022/09/05 02:54:13;;;;;;;13.85;12.00;;;;;;;15.44;78.55;101329.16;4925479;29;20036;-73
2022/09/05 02:56:59;;;;;;;12.90;11.63;;;;;;;15.43;79.13;101328.28;4929324;29;20503;-73
2022/09/05 02:59:52;;;;;;;13.57;11.90;;;;;;;15.43;79.01;101327.38;4928619;29;20044;-73
2022/09/05 03:02:28;;;;;;;13.80;12.38;;;;;;;15.41;79.20;101324.75;4929080;29;20107;-73
2022/09/05 03:05:01;;;;;;;13.65;12.38;;;;;;;15.39;79.36;101320.38;4931387;29;20098;-73
2022/09/05 03:07:44;;;;;;;12.55;11.27;;;;;;;15.36;80.27;101320.41;4939670;28;20071;-73
2022/09/05 03:10:35;;;;;;;15.85;13.15;;;;;;;15.32;79.82;101323.06;4928005;29;20036;-73
2022/09/05 03:13:56;;;;;;;16.88;13.70;;;;;;;15.30;80.04;101318.69;4927875;29;20051;-73
2022/09/05 03:16:42;;;;;;;15.18;12.85;;;;;;;15.25;80.18;101312.56;4927334;29;20095;-73
2022/09/05 03:19:49;;;;;;;14.57;12.85;;;;;;;15.23;80.05;101304.59;4928075;29;20036;-74
2022/09/05 03:22:39;;;;;;;14.63;13.13;;;;;;;15.20;80.04;101312.63;4926784;29;20051;-73
2022/09/05 03:25:38;;;;;;;14.02;12.35;;;;;;;15.16;80.83;101310.88;4926780;29;20517;-73
2022/09/05 03:28:19;;;;;;;16.60;13.02;;;;;;;15.12;80.59;101315.38;4928079;29;20079;-73
2022/09/05 03:31:21;;;;;;;14.50;12.90;;;;;;;15.09;81.01;101311.84;4927939;29;20036;-73
2022/09/05 03:34:01;;;;;;;12.50;11.25;;;;;;;15.04;80.95;101319.91;4929433;29;20050;-73
2022/09/05 03:37:09;;;;;;;15.40;13.80;;;;;;;15.05;81.48;101318.13;4927171;29;20067;-74
2022/09/05 03:40:06;;;;;;;15.15;11.85;;;;;;;15.05;81.04;101324.31;4929048;29;20044;-74
2022/09/05 03:42:47;;;;;;;15.27;13.68;;;;;;;15.03;80.94;101319.91;4926513;29;20055;-73
2022/09/05 03:45:26;;;;;;;13.77;12.43;;;;;;;15.01;81.58;101325.28;4928173;29;20059;-73
2022/09/05 03:47:59;;;;;;;15.13;13.52;;;;;;;14.99;81.93;101315.56;4934494;29;20039;-73
2022/09/05 03:50:36;;;;;;;15.52;13.90;;;;;;;14.96;81.70;101324.44;4930632;29;20032;-74
2022/09/05 03:53:26;;;;;;;15.32;13.73;;;;;;;14.94;82.05;101315.59;4927813;29;20047;-74
2022/09/05 03:56:25;;;;;;;14.70;13.20;;;;;;;14.92;82.76;101317.38;4932311;29;20039;-73
2022/09/05 03:59:02;;;;;;;17.45;14.13;;;;;;;14.88;82.41;101329.84;4931968;29;20044;-73
2022/09/05 04:01:49;;;;;;;15.32;13.77;;;;;;;14.87;82.95;101327.19;4926888;29;20040;-73
2022/09/05 04:04:32;;;;;;;15.63;14.00;;;;;;;14.86;82.42;101336.94;4925367;29;20051;-73
2022/09/05 04:07:01;;;;;;;15.57;13.43;;;;;;;14.85;82.84;101340.47;4930953;29;20506;-74
2022/09/05 04:09:48;;;;;;;15.02;13.55;;;;;;;14.84;82.89;101333.41;4929037;29;20122;-74
2022/09/05 04:12:23;;;;;;;17.83;13.60;;;;;;;14.84;82.32;101330.75;4926519;29;20052;-73
2022/09/05 04:15:00;;;;;;;17.33;15.60;;;;;;;14.80;82.47;101329.06;4925372;29;20546;-74
2022/09/05 04:17:42;;;;;;;15.32;11.80;;;;;;;14.76;82.87;101332.63;4926967;29;20123;-73
2022/09/05 04:20:24;;;;;;;14.13;12.63;;;;;;;14.76;83.00;101337.94;4925845;29;20078;-74
2022/09/05 04:23:26;;;;;;;18.08;14.48;;;;;;;14.74;83.59;101330.88;4922710;29;20031;-73
2022/09/05 04:26:18;;;;;;;14.95;13.45;;;;;;;14.72;83.47;101333.53;4932326;29;20035;-74
2022/09/05 04:29:19;;;;;;;16.75;14.38;;;;;;;14.71;83.88;101338.88;4929648;29;20090;-74
2022/09/05 04:32:28;;;;;;;16.35;14.00;;;;;;;14.70;84.12;101340.66;4927513;29;20054;-73
2022/09/05 04:35:24;;;;;;;15.10;12.32;;;;;;;14.67;84.31;101340.69;4933269;29;20040;-73
2022/09/05 04:38:03;;;;;;;15.25;13.63;;;;;;;14.67;84.37;101338.03;4927717;29;20044;-73
2022/09/05 04:40:39;;;;;;;14.23;12.88;;;;;;;14.69;84.07;101337.09;4926321;29;20044;-73
2022/09/05 04:43:17;;;;;;;22.20;14.30;;;;;;;14.73;84.05;101343.28;4927894;29;20079;-73
2022/09/05 04:46:07;;;;;;;18.17;13.52;;;;;;;14.75;84.15;101346.81;4928883;29;20122;-73
2022/09/05 04:48:48;;;;;;;14.85;13.32;;;;;;;14.76;83.97;101348.56;4933522;29;20039;-73
2022/09/05 04:51:39;;;;;;;14.40;13.02;;;;;;;14.79;84.59;101345.88;4932014;29;20596;-73
2022/09/05 04:54:27;;;;;;;13.88;12.50;;;;;;;14.81;84.57;101345.88;4929710;29;20102;-74
2022/09/05 04:57:16;;;;;;;14.50;13.00;;;;;;;14.83;84.42;101352.94;4928402;29;20124;-74
2022/09/05 04:59:58;;;;;;;15.57;13.45;;;;;;;14.88;84.17;101355.50;4929261;29;20055;-73
2022/09/05 05:02:37;;;;;;;30.23;23.63;;;;;;;14.89;84.33;101358.16;4931175;29;20044;-73
2022/09/05 05:05:09;;;;;;;14.70;13.15;;;;;;;14.93;83.68;101363.44;4933480;29;20051;-74
2022/09/05 05:07:56;;;;;;;12.65;11.35;;;;;;;14.96;83.99;101363.41;4932333;29;20032;-73
2022/09/05 05:10:39;;;;;;;17.80;14.32;;;;;;;15.00;84.62;101362.50;4927416;29;20035;-73
2022/09/05 05:13:15;;;;;;;15.18;13.55;;;;;;;15.03;83.53;101365.09;4929105;29;20178;-74
2022/09/05 05:15:52;;;;;;;14.82;13.30;;;;;;;15.08;83.89;101368.59;4927779;29;20114;-74
2022/09/05 05:18:27;;;;;;;16.77;14.15;;;;;;;15.13;83.50;101374.75;4923377;29;20054;-73
2022/09/05 05:21:01;;;;;;;14.63;12.63;;;;;;;15.16;83.69;101371.16;4928780;29;20134;-74
2022/09/05 05:23:40;;;;;;;15.80;14.13;;;;;;;15.21;83.83;101372.00;4924251;29;20051;-74
2022/09/05 05:26:19;;;;;;;15.45;13.85;;;;;;;15.24;83.48;101371.97;4925528;29;20426;-73
2022/09/05 05:28:58;;;;;;;13.95;12.15;;;;;;;15.29;83.43;101378.09;4923966;29;20558;-73
2022/09/05 05:31:32;;;;;;;15.73;13.93;;;;;;;15.34;83.63;101377.13;4924909;29;20415;-73
2022/09/05 05:34:01;;;;;;;15.77;14.00;;;;;;;15.37;83.26;101375.34;4924352;29;20055;-74
2022/09/05 05:36:33;;;;;;;13.63;12.18;;;;;;;15.40;83.35;101372.66;4925070;29;20048;-73
2022/09/05 05:39:07;;;;;;;14.60;13.20;;;;;;;15.46;83.43;101376.13;4930877;29;20040;-73
2022/09/05 05:41:42;;;;;;;13.77;12.38;;;;;;;15.52;82.61;101370.72;4924691;29;20582;-73
2022/09/05 05:44:13;;;;;;;13.77;12.40;;;;;;;15.64;82.37;101375.00;4931988;29;20036;-74
2022/09/05 05:46:42;;;;;;;13.00;11.55;;;;;;;15.68;82.56;101382.03;4924090;29;20520;-74
2022/09/05 05:49:25;;;;;;;14.57;13.07;;;;;;;15.77;82.32;101381.94;4926994;29;20043;-74
2022/09/05 05:52:21;;;;;;;14.73;13.20;;;;;;;15.83;81.89;101373.00;4930473;29;20043;-73
2022/09/05 05:54:56;;;;;;;15.43;13.25;;;;;;;15.90;81.88;101381.75;4928243;29;20562;-73
2022/09/05 05:57:35;;;;;;;14.38;12.98;;;;;;;15.95;81.40;101383.44;4923513;29;20204;-73
2022/09/05 06:00:22;;;;;;;14.32;13.02;;;;;;;16.06;81.14;101388.63;4924678;29;20063;-73
2022/09/05 06:03:17;;;;;;;16.95;14.75;;;;;;;16.13;81.03;101384.06;4924870;29;20075;-74
2022/09/05 06:06:04;;;;;;;16.80;13.25;;;;;;;16.23;80.06;101380.38;4925603;29;20035;-74
2022/09/05 06:09:09;;;;;;;17.05;15.35;;;;;;;16.37;80.40;101388.13;4924760;29;20079;-73
2022/09/05 06:12:15;;;;;;;18.88;14.27;;;;;;;16.48;79.84;101393.28;4927002;29;20039;-74
2022/09/05 06:15:24;;;;;;;12.93;11.57;;;;;;;16.54;79.61;101396.72;4925904;29;20035;-73
2022/09/05 06:18:36;;;;;;;13.65;12.35;;;;;;;16.63;78.58;101391.22;4925759;29;20039;-73
2022/09/05 06:21:50;;;;;;;19.40;17.48;;;;;;;16.72;79.10;101386.66;4944269;28;20039;-73
2022/09/05 06:24:34;;;;;;;19.33;14.85;;;;;;;16.89;78.17;101381.91;4923394;29;20047;-74
2022/09/05 06:27:10;;;;;;;18.33;16.25;;;;;;;17.01;77.30;101387.03;4923004;29;20119;-74
2022/09/05 06:29:56;;;;;;;16.88;14.88;;;;;;;17.18;77.22;101388.47;4924492;29;20392;-74
2022/09/05 06:32:31;;;;;;;17.48;15.32;;;;;;;17.31;76.24;101389.97;4925680;29;20558;-74
2022/09/05 06:35:15;;;;;;;16.42;14.82;;;;;;;17.37;76.21;101387.22;4930515;29;20490;-74
2022/09/05 06:38:01;;;;;;;14.65;13.25;;;;;;;17.43;75.25;101392.41;4929926;29;20059;-74
2022/09/05 06:40:38;;;;;;;16.10;14.70;;;;;;;17.49;75.10;101386.94;4930454;29;20036;-74
2022/09/05 06:43:36;;;;;;;15.57;14.07;;;;;;;17.65;75.39;101386.59;4927918;29;20043;-74
2022/09/05 06:46:09;;;;;;;13.32;12.13;;;;;;;17.73;75.23;101382.84;4930702;29;20139;-74
2022/09/05 06:48:51;;;;;;;14.55;12.95;;;;;;;17.86;74.70;101386.16;4929677;29;20415;-74
2022/09/05 06:51:41;;;;;;;16.08;14.52;;;;;;;17.93;73.87;101385.09;4927866;29;20039;-74
2022/09/05 06:54:35;;;;;;;15.68;14.02;;;;;;;17.99;73.57;101380.53;4924772;29;20488;-74
2022/09/05 06:57:50;;;;;;;17.30;15.13;;;;;;;18.10;73.55;101382.06;4925221;29;20036;-73
2022/09/05 07:00:22;;;;;;;16.27;14.82;;;;;;;18.18;72.86;101381.84;4919067;29;20107;-73
2022/09/05 07:03:25;;;;;;;15.70;14.18;;;;;;;18.25;72.78;101374.56;4926133;29;20135;-73
2022/09/05 07:05:59;;;;;;;18.85;14.23;;;;;;;18.35;72.59;101373.44;4928314;29;20039;-74
2022/09/05 07:08:46;;;;;;;17.80;15.98;;;;;;;18.46;72.08;101373.16;4928741;29;20494;-74
2022/09/05 07:11:20;;;;;;;15.90;14.27;;;;;;;18.59;71.97;101385.28;4924797;29;20051;-74
2022/09/05 07:14:01;;;;;;;16.45;14.85;;;;;;;18.67;71.67;101369.06;4928201;29;20046;-74
2022/09/05 07:16:33;;;;;;;18.85;16.90;;;;;;;18.74;71.26;101378.69;4921736;29;20036;-74
2022/09/05 07:19:49;;;;;;;18.02;16.23;;;;;;;18.80;70.88;101383.88;4926204;29;20466;-74
2022/09/05 07:22:33;;;;;;;17.08;15.15;;;;;;;18.85;70.45;101381.09;4892411;29;20135;-74
2022/09/05 07:25:08;;;;;;;15.65;14.20;;;;;;;18.92;70.46;101383.56;4921314;29;20104;-74
2022/09/05 07:27:42;;;;;;;16.88;15.07;;;;;;;19.01;69.78;101385.09;4926020;29;20035;-73
2022/09/05 07:30:08;;;;;;;17.88;15.23;;;;;;;19.11;69.36;101389.28;4928094;29;20032;-74
2022/09/05 07:32:43;;;;;;;15.95;14.45;;;;;;;19.19;69.21;101391.75;4924371;29;20066;-74
2022/09/05 07:35:19;;;;;;;16.40;14.90;;;;;;;19.31;68.72;101395.84;4925238;29;20091;-74
2022/09/05 07:37:50;;;;;;;17.67;15.88;;;;;;;19.43;68.95;101392.81;4923544;29;20040;-73
2022/09/05 07:40:20;;;;;;;14.95;13.57;;;;;;;19.56;68.22;101391.53;4923792;29;20036;-74
2022/09/05 07:42:55;;;;;;;15.20;13.70;;;;;;;19.69;67.74;101387.59;4928758;29;20047;-74
2022/09/05 07:45:27;;;;;;;16.35;14.60;;;;;;;19.78;67.49;101388.25;4928834;29;20114;-74
2022/09/05 07:47:57;;;;;;;;;;;;;;;19.85;67.06;101387.13;4929840;29;20040;-74
2022/09/05 07:50:24;;;;;;;16.77;15.27;;;;;;;19.99;67.01;101386.69;4929778;29;20017;-74
2022/09/05 07:52:50;;;;;;;14.90;13.27;;;;;;;20.08;66.58;101383.72;4927472;29;20063;-74
2022/09/05 07:55:33;;;;;;;18.92;17.02;;;;;;;20.13;65.81;101385.34;4927097;29;20507;-74
2022/09/05 07:58:01;;;;;;;16.75;15.25;;;;;;;20.27;66.19;101384.88;4928232;29;20052;-74
2022/09/05 08:00:29;;;;;;;16.20;14.60;;;;;;;20.39;65.66;101383.59;4926530;29;20461;-74
2022/09/05 08:02:57;;;;;;;18.00;16.20;;;;;;;20.47;65.39;101370.81;4932293;29;20079;-74
2022/09/05 08:05:25;;;;;;;14.93;13.48;;;;;;;20.61;64.16;101378.41;4935459;29;20070;-74
2022/09/05 08:07:54;;;;;;;16.60;14.13;;;;;;;20.64;64.50;101370.25;4928420;29;20039;-74
2022/09/05 08:10:30;;;;;;;17.05;15.52;;;;;;;20.76;64.03;101369.84;4927911;29;20039;-74
2022/09/05 08:13:13;;;;;;;14.93;13.70;;;;;;;20.91;63.71;101360.38;4928290;29;20036;-74
2022/09/05 08:15:47;;;;;;;17.75;16.15;;;;;;;21.04;63.41;101367.97;4929117;29;20050;-74
2022/09/05 08:18:26;;;;;;;16.15;14.75;;;;;;;21.14;62.67;101362.22;4928104;29;20035;-74
2022/09/05 08:21:02;;;;;;;18.38;16.42;;;;;;;21.26;62.83;101365.38;4930909;29;20036;-74
2022/09/05 08:23:49;;;;;;;19.38;17.45;;;;;;;21.28;62.49;101371.56;4930638;29;20118;-74
2022/09/05 08:26:41;;;;;;;17.75;15.52;;;;;;;21.39;61.58;101362.19;4929655;29;20047;-74
2022/09/05 08:29:25;;;;;;;15.48;14.02;;;;;;;21.53;60.94;101358.09;4924331;29;20048;-74
2022/09/05 08:31:57;;;;;;;14.18;12.85;;;;;;;21.60;61.40;101356.94;4945552;29;20036;-74
2022/09/05 08:34:52;;;;;;;17.33;15.43;;;;;;;21.64;60.91;101355.88;4927050;29;20040;-74
2022/09/05 08:37:20;;;;;;;17.88;16.38;;;;;;;21.72;60.84;101352.88;4923927;29;20043;-74
2022/09/05 08:39:49;;;;;;;16.92;14.82;;;;;;;21.83;61.06;101356.91;4933304;29;20031;-74
2022/09/05 08:42:30;;;;;;;16.45;14.85;;;;;;;21.85;60.24;101354.16;4930148;29;20063;-74
2022/09/05 08:45:11;;;;;;;17.25;15.45;;;;;;;21.91;60.53;101358.44;4933695;29;20118;-74
2022/09/05 08:48:13;;;;;;;14.93;13.45;;;;;;;22.01;60.17;101355.31;4933173;29;20114;-74
2022/09/05 08:50:41;;;;;;;16.23;14.93;;;;;;;;;;4934989;29;20051;-74
2022/09/05 08:53:11;;;;;;;15.60;14.30;;;;;;;22.25;59.56;101347.19;4932216;29;20547;-74
2022/09/05 08:55:48;;;;;;;17.88;16.10;;;;;;;22.38;59.58;101345.75;4932261;29;20046;-74
2022/09/05 08:58:28;;;;;;;14.68;13.48;;;;;;;22.52;58.41;101346.00;4932238;29;20102;-74
2022/09/05 09:01:26;;;;;;;16.60;15.05;;;;;;;22.59;58.19;101351.16;4925962;29;20171;-74
2022/09/05 09:04:19;;;;;;;15.88;14.13;;;;;;;22.65;58.34;101340.97;4925852;29;20498;-74
2022/09/05 09:07:06;;;;;;;16.33;14.77;;;;;;;22.70;58.00;101341.66;4926563;29;20479;-74
2022/09/05 09:09:40;;;;;;;15.25;13.85;;;;;;;22.70;57.96;101346.16;4926427;29;20023;-74
2022/09/05 09:12:18;;;;;;;15.05;13.75;;;;;;;22.76;57.53;101341.38;4933223;29;20072;-74
2022/09/05 09:14:53;;;;;;;15.43;14.00;;;;;;;22.86;57.45;101349.03;4926207;29;20095;-74
2022/09/05 09:17:42;;;;;;;16.40;14.90;;;;;;;22.91;57.40;101337.13;4924205;29;20087;-74
2022/09/05 09:20:14;;;;;;;19.45;16.52;;;;;;;23.02;57.07;101347.44;4923841;29;20460;-74
2022/09/05 09:23:05;;;;;;;15.80;14.50;;;;;;;23.14;56.95;101344.19;4926336;29;20048;-74
2022/09/05 09:25:38;;;;;;;17.07;15.57;;;;;;;23.25;57.00;101345.53;4927305;29;20042;-74
2022/09/05 09:28:28;;;;;;;15.90;14.60;;;;;;;23.28;56.15;101342.69;4930179;29;20292;-75
2022/09/05 09:31:03;;;;;;;15.43;13.55;;;;;;;23.24;56.29;101338.38;4926453;29;20067;-74
2022/09/05 09:33:43;;;;;;;14.63;13.27;;;;;;;23.25;56.54;101345.53;4927069;29;20035;-74
2022/09/05 09:36:39;;;;;;;16.30;14.60;;;;;;;23.39;56.08;101332.28;4927062;29;20043;-74
2022/09/05 09:39:49;;;;;;;17.85;16.25;;;;;;;23.51;55.72;101342.50;4924506;29;20048;-74
2022/09/05 09:42:33;;;;;;;14.23;13.02;;;;;;;23.57;55.07;101338.63;4919496;28;20074;-75
2022/09/05 09:45:30;;;;;;;18.08;16.17;;;;;;;23.62;55.12;101342.84;4924084;29;20040;-75
2022/09/05 09:48:01;;;;;;;16.25;14.77;;;;;;;23.70;54.96;101341.59;4923140;29;20072;-75
2022/09/05 09:50:56;;;;;;;17.42;15.52;;;;;;;23.70;54.77;101336.22;4926854;29;20042;-74
2022/09/05 09:53:33;;;;;;;22.13;19.92;;;;;;;23.84;54.94;101344.53;4927518;29;20455;-74
2022/09/05 09:56:12;;;;;;;17.90;16.40;;;;;;;24.07;54.41;101329.91;4926046;29;20043;-74
2022/09/05 09:59:18;;;;;;;22.25;19.35;;;;;;;24.16;53.40;101340.25;4931901;29;20040;-74
2022/09/05 10:01:53;;;;;;;18.27;16.65;;;;;;;24.23;53.95;101335.41;4928406;29;20044;-75
2022/09/05 10:04:54;;;;;;;15.02;13.63;;;;;;;24.36;53.79;101335.66;4925293;29;20052;-74
2022/09/05 10:08:06;;;;;;;21.58;19.15;;;;;;;24.56;53.33;101327.47;4925876;29;20040;-75
2022/09/05 10:10:44;;;;;;;16.05;14.60;;;;;;;24.73;52.63;101329.25;4926494;29;20095;-75
2022/09/05 10:13:51;;;;;;;19.95;17.83;;;;;;;24.77;52.13;101320.06;4930279;29;20115;-76
2022/09/05 10:16:25;;;;;;;16.42;14.98;;;;;;;24.73;52.57;101323.88;4925351;29;20036;-75
2022/09/05 10:19:21;;;;;;;15.35;14.15;;;;;;;24.87;52.00;101317.75;4929313;29;20040;-76
2022/09/05 10:22:02;;;;;;;15.18;13.88;;;;;;;24.93;51.81;101314.72;4929791;29;20040;-75
2022/09/05 10:24:58;;;;;;;16.67;15.20;;;;;;;24.95;51.55;101312.81;4925729;29;20039;-75
2022/09/05 10:28:01;;;;;;;21.35;19.35;;;;;;;25.14;51.83;101315.38;4926119;29;20497;-75
2022/09/05 10:31:10;;;;;;;15.45;14.15;;;;;;;25.15;51.05;101303.59;4929038;29;20082;-75
2022/09/05 10:33:41;;;;;;;20.60;18.60;;;;;;;25.22;51.38;101305.03;4930500;29;20047;-75
2022/09/05 10:36:27;;;;;;;17.85;16.20;;;;;;;25.34;50.54;101293.56;4924819;29;20044;-75
2022/09/05 10:39:14;;;;;;;19.83;17.83;;;;;;;25.38;50.63;101304.19;4924165;29;20126;-75
2022/09/05 10:42:00;;;;;;;16.63;15.05;;;;;;;25.36;50.50;101298.88;4938600;29;20078;-75
2022/09/05 10:44:41;;;;;;;18.50;16.77;;;;;;;25.43;50.35;101291.31;4923633;29;20418;-75
2022/09/05 10:47:23;;;;;;;26.52;20.58;;;;;;;25.53;50.49;101287.13;4926707;29;20078;-75
2022/09/05 10:50:02;;;;;;;21.98;19.75;;;;;;;25.61;49.94;101292.97;4925075;29;20131;-75
2022/09/05 10:52:36;;;;;;;18.63;17.08;;;;;;;25.54;49.79;101286.16;4926083;29;20046;-75
2022/09/05 10:55:26;;;;;;;21.42;19.25;;;;;;;25.59;50.10;101282.22;4923428;29;20376;-75
2022/09/05 10:58:19;;;;;;;19.50;17.67;;;;;;;25.67;49.91;101289.03;4925418;29;20036;-75
2022/09/05 11:00:56;;;;;;;21.40;19.60;;;;;;;25.90;49.34;101285.03;4925782;29;20479;-76
2022/09/05 11:04:02;;;;;;;23.55;20.92;;;;;;;26.10;49.26;101270.34;4926575;29;20047;-75
2022/09/05 11:07:07;;;;;;;;;;;;;;;;;;;;;
2022/09/05 11:10:12;;;;;;;18.45;16.02;;;;;;;26.15;48.47;101261.00;4976776;23;20129;-74
2022/09/05 11:12:58;;;;;;;21.05;18.60;;;;;;;26.27;48.89;101262.06;4985245;28;20102;-74
2022/09/05 11:15:26;;;;;;;18.00;16.50;;;;;;;26.36;48.44;101252.53;4990311;28;20516;-74
2022/09/05 11:18:23;;;;;;;22.58;20.35;;;;;;;26.51;48.15;101254.28;4991625;28;20042;-74
2022/09/05 11:21:02;;;;;;;13.52;12.43;;;;;;;26.35;48.22;101251.66;4964780;28;20055;-74
2022/09/05 11:23:38;;;;;;;19.98;17.92;;;;;;;26.51;48.33;101254.28;4971722;28;20169;-74
2022/09/05 11:26:07;;;;;;;16.48;14.98;;;;;;;26.67;47.31;101252.44;4969915;28;20163;-74
2022/09/05 11:28:50;;;;;;;19.98;17.98;;;;;;;26.67;47.52;101254.25;4967400;28;20571;-74
2022/09/05 11:31:23;;;;;;;23.33;20.85;;;;;;;26.84;47.05;101256.78;4973741;28;20046;-74
2022/09/05 11:34:20;;;;;;;20.15;18.33;;;;;;;27.19;46.60;101252.81;4968668;28;20050;-74
2022/09/05 11:36:50;;;;;;;18.58;17.13;;;;;;;27.54;45.81;101243.25;4971107;28;20401;-74
2022/09/05 11:39:48;;;;;;;21.40;19.80;;;;;;;27.86;44.78;101247.53;4975462;28;20049;-74
2022/09/05 11:42:35;;;;;;;16.80;15.70;;;;;;;28.07;43.97;101245.22;4971810;28;20034;-74
2022/09/05 11:45:32;;;;;;;20.15;18.73;;;;;;;28.00;43.54;101244.75;4972128;28;20474;-74
2022/09/05 11:48:25;;;;;;;21.88;19.17;;;;;;;28.38;43.62;101239.41;4973544;28;20104;-74
2022/09/05 11:51:23;;;;;;;20.25;18.67;;;;;;;28.51;42.42;101230.44;4965951;28;20062;-74
2022/09/05 11:54:27;;;;;;;22.05;20.35;;;;;;;28.71;42.54;101227.13;4971077;28;20089;-75
2022/09/05 11:57:22;;;;;;;19.52;17.45;;;;;;;28.95;40.90;101231.78;4974465;28;20133;-74
2022/09/05 12:00:18;;;;;;;19.77;18.17;;;;;;;29.15;41.05;101224.94;4972554;28;20050;-74
2022/09/05 12:03:38;;;;;;;17.17;15.63;;;;;;;29.31;40.88;101224.69;4973686;28;20058;-75
2022/09/05 12:06:16;;;;;;;23.30;21.45;;;;;;;29.53;41.04;101218.50;4915068;29;20071;-75
2022/09/05 12:09:01;;;;;;;21.95;20.23;;;;;;;29.82;40.36;101213.63;4962511;28;20509;-75
2022/09/05 12:11:51;;;;;;;23.58;21.67;;;;;;;30.10;39.35;101217.78;4971785;28;20031;-74
2022/09/05 12:14:34;;;;;;;22.48;20.73;;;;;;;30.20;38.15;101207.06;4971730;28;20130;-75
2022/09/05 12:17:29;;;;;;;20.15;18.42;;;;;;;30.29;38.58;101215.41;4971832;28;20035;-75
2022/09/05 12:19:58;;;;;;;22.23;20.58;;;;;;;30.44;38.75;101212.44;4967951;28;20042;-75
2022/09/05 12:22:28;;;;;;;20.15;18.67;;;;;;;30.59;38.20;101203.06;4969751;28;20118;-75
2022/09/05 12:24:58;;;;;;;21.67;20.08;;;;;;;30.75;37.93;101202.69;4974533;28;20046;-74
2022/09/05 12:27:29;;;;;;;22.20;20.45;;;;;;;30.88;37.25;101203.47;4969707;28;20043;-74
2022/09/05 12:29:57;;;;;;;18.60;17.17;;;;;;;30.51;37.47;101195.50;4968158;28;20034;-75